createdAt,value
2022-08-17T00:00:49.452Z,19.38
2022-08-17T00:03:26.167Z,19.50
2022-08-17T00:06:01.174Z,19.34
2022-08-17T00:08:40.083Z,19.17
2022-08-17T00:11:09.706Z,19.26
2022-08-17T00:13:43.800Z,19.02
2022-08-17T00:16:23.239Z,19.09
2022-08-17T00:19:13.521Z,19.14
2022-08-17T00:22:29.628Z,19.20
2022-08-17T00:24:30.986Z,19.12
2022-08-17T00:26:57.654Z,19.04
2022-08-17T00:29:24.211Z,19.29
2022-08-17T00:31:54.025Z,19.24
2022-08-17T00:34:24.105Z,19.43
2022-08-17T00:36:50.831Z,18.89
2022-08-17T00:39:17.353Z,18.98
2022-08-17T00:41:44.137Z,18.83
2022-08-17T00:44:12.488Z,18.96
2022-08-17T00:46:43.850Z,18.59
2022-08-17T00:49:13.197Z,18.63
2022-08-17T00:52:10.808Z,18.75
2022-08-17T00:54:42.555Z,18.59
2022-08-17T00:57:13.848Z,18.52
2022-08-17T00:59:45.573Z,18.71
2022-08-17T01:02:15.820Z,19.37
2022-08-17T01:04:44.788Z,19.22
2022-08-17T01:07:12.251Z,19.48
2022-08-17T01:09:40.358Z,19.46
2022-08-17T01:12:12.333Z,19.24
2022-08-17T01:14:39.747Z,19.40
2022-08-17T01:17:07.769Z,18.90
2022-08-17T01:19:39.318Z,18.58
2022-08-17T01:22:09.108Z,18.68
2022-08-17T01:24:37.245Z,18.58
2022-08-17T01:27:10.388Z,18.85
2022-08-17T01:29:39.499Z,19.31
2022-08-17T01:32:08.177Z,19.30
2022-08-17T01:34:43.775Z,19.23
2022-08-17T01:37:18.491Z,18.61
2022-08-17T01:40:08.839Z,18.47
2022-08-17T01:42:43.119Z,18.47
2022-08-17T01:45:15.274Z,18.35
2022-08-17T01:47:41.960Z,18.25
2022-08-17T01:50:15.796Z,19.05
2022-08-17T01:52:47.337Z,19.22
2022-08-17T01:55:17.123Z,18.67
2022-08-17T01:57:58.039Z,18.58
2022-08-17T02:00:27.099Z,18.73
2022-08-17T02:03:18.611Z,19.02
2022-08-17T02:05:46.770Z,19.00
2022-08-17T02:08:19.724Z,18.47
2022-08-17T02:10:48.619Z,18.36
2022-08-17T02:13:16.365Z,18.81
2022-08-17T02:15:45.494Z,18.52
2022-08-17T02:18:15.237Z,18.89
2022-08-17T02:20:45.511Z,18.81
2022-08-17T02:23:13.220Z,18.59
2022-08-17T02:25:43.434Z,18.86
2022-08-17T02:28:11.306Z,18.57
2022-08-17T02:31:00.282Z,18.53
2022-08-17T02:33:25.230Z,18.58
2022-08-17T02:36:10.659Z,18.60
2022-08-17T02:38:37.944Z,19.11
2022-08-17T02:41:05.287Z,18.95
2022-08-17T02:43:32.586Z,18.45
2022-08-17T02:45:59.136Z,18.49
2022-08-17T02:48:30.579Z,18.34
2022-08-17T02:50:59.660Z,18.16
2022-08-17T02:53:35.662Z,18.00
2022-08-17T02:56:03.375Z,18.16
2022-08-17T02:58:34.981Z,18.10
2022-08-17T03:01:05.006Z,17.91
2022-08-17T03:03:34.680Z,18.19
2022-08-17T03:06:01.827Z,18.25
2022-08-17T03:08:28.630Z,18.48
2022-08-17T03:10:55.246Z,18.82
2022-08-17T03:13:22.328Z,18.62
2022-08-17T03:15:49.891Z,18.29
2022-08-17T03:18:24.722Z,18.18
2022-08-17T03:21:01.006Z,17.87
2022-08-17T03:23:29.551Z,18.24
2022-08-17T03:25:56.734Z,18.26
2022-08-17T03:28:23.974Z,18.01
2022-08-17T03:30:51.709Z,18.01
2022-08-17T03:33:18.935Z,17.74
2022-08-17T03:35:46.133Z,17.88
2022-08-17T03:38:15.248Z,18.19
2022-08-17T03:40:58.759Z,18.44
2022-08-17T03:43:29.252Z,18.17
2022-08-17T03:46:28.636Z,18.17
2022-08-17T03:49:19.247Z,18.27
2022-08-17T03:52:04.739Z,18.77
2022-08-17T03:54:49.891Z,18.31
2022-08-17T03:57:16.769Z,18.22
2022-08-17T03:59:44.939Z,18.30
2022-08-17T04:02:19.402Z,18.48
2022-08-17T04:04:46.687Z,18.14
2022-08-17T04:07:13.291Z,18.53
2022-08-17T04:09:39.869Z,18.70
2022-08-17T04:12:06.632Z,18.47
2022-08-17T04:14:51.743Z,18.91
2022-08-17T04:17:21.438Z,18.43
2022-08-17T04:19:48.034Z,18.61
2022-08-17T04:22:30.353Z,18.09
2022-08-17T04:25:02.451Z,18.11
2022-08-17T04:27:29.030Z,17.86
2022-08-17T04:29:56.204Z,18.25
2022-08-17T04:32:59.190Z,18.40
2022-08-17T04:35:10.514Z,18.81
2022-08-17T04:37:37.128Z,18.95
2022-08-17T04:40:23.066Z,18.59
2022-08-17T04:43:10.155Z,18.27
2022-08-17T04:45:55.013Z,18.88
2022-08-17T04:48:22.793Z,18.98
2022-08-17T04:50:54.340Z,18.71
2022-08-17T04:53:23.625Z,18.48
2022-08-17T04:55:52.406Z,18.73
2022-08-17T04:58:19.619Z,18.85
2022-08-17T05:00:46.299Z,19.05
2022-08-17T05:03:13.555Z,19.45
2022-08-17T05:05:43.480Z,19.30
2022-08-17T05:08:10.278Z,19.45
2022-08-17T05:10:45.049Z,19.70
2022-08-17T05:13:16.365Z,19.45
2022-08-17T05:15:47.771Z,19.29
2022-08-17T05:18:17.380Z,19.36
2022-08-17T05:20:44.606Z,19.41
2022-08-17T05:23:15.001Z,19.23
2022-08-17T05:25:47.424Z,19.09
2022-08-17T05:28:41.863Z,19.30
2022-08-17T05:31:12.803Z,19.71
2022-08-17T05:33:46.165Z,19.76
2022-08-17T05:36:43.247Z,20.04
2022-08-17T05:39:03.874Z,20.07
2022-08-17T05:41:33.471Z,20.12
2022-08-17T05:44:05.554Z,20.04
2022-08-17T05:46:48.022Z,19.78
2022-08-17T05:49:26.939Z,20.24
2022-08-17T05:52:37.879Z,20.44
2022-08-17T06:01:54.331Z,20.53
2022-08-17T06:04:44.812Z,20.72
2022-08-17T06:45:31.477Z,22.15
2022-08-17T06:48:15.387Z,22.06
2022-08-17T06:58:16.341Z,22.73
2022-08-17T07:04:30.570Z,23.15
2022-08-17T07:07:27.643Z,23.21
2022-08-17T07:09:57.639Z,23.45
2022-08-17T07:12:39.459Z,23.66
2022-08-17T07:15:38.254Z,23.69
2022-08-17T07:18:08.882Z,23.83
2022-08-17T07:21:17.639Z,23.88
2022-08-17T07:24:29.359Z,24.28
2022-08-17T07:27:09.432Z,24.31
2022-08-17T13:13:56.245Z,30.69
2022-08-17T13:14:43.169Z,29.61
2022-08-17T13:17:13.298Z,29.13
2022-08-17T13:19:52.186Z,29.35
2022-08-17T13:26:15.487Z,29.06
2022-08-17T13:28:51.406Z,29.09
2022-08-17T13:31:30.399Z,29.75
2022-08-17T13:35:39.165Z,29.56
2022-08-17T13:39:00.613Z,29.29
2022-08-17T13:45:36.768Z,29.17
2022-08-17T13:48:40.342Z,29.79
2022-08-17T13:52:10.564Z,29.49
2022-08-17T13:55:26.310Z,30.01
2022-08-17T13:58:07.115Z,29.58
2022-08-17T14:00:58.808Z,29.40
2022-08-17T14:03:27.806Z,29.84
2022-08-17T14:05:57.117Z,29.41
2022-08-17T14:08:24.000Z,29.62
2022-08-17T14:10:58.494Z,29.23
2022-08-17T14:13:25.102Z,29.54
2022-08-17T14:15:55.581Z,29.58
2022-08-17T14:36:51.221Z,29.34
2022-08-17T14:46:58.064Z,29.59
2022-08-17T14:49:28.313Z,29.42
2022-08-17T14:51:55.291Z,29.22
2022-08-17T14:54:53.773Z,29.09
2022-08-17T14:57:46.841Z,29.46
2022-08-17T15:00:17.332Z,29.72
2022-08-17T15:02:46.024Z,29.34
2022-08-17T15:05:18.471Z,29.45
2022-08-17T15:07:45.049Z,30.05
2022-08-17T15:10:13.603Z,29.81
2022-08-17T15:12:41.592Z,29.47
2022-08-17T15:15:16.596Z,28.89
2022-08-17T15:17:46.021Z,29.03
2022-08-17T15:20:16.405Z,29.46
2022-08-17T15:22:45.389Z,29.58
2022-08-17T15:25:14.873Z,29.50
2022-08-17T15:27:42.118Z,29.44
2022-08-17T15:30:18.902Z,29.74
2022-08-17T15:32:54.049Z,29.59
2022-08-17T15:35:39.755Z,29.57
2022-08-17T15:38:11.955Z,29.90
2022-08-17T15:40:53.551Z,29.47
2022-08-17T15:43:28.228Z,29.66
2022-08-17T15:46:00.238Z,29.36
2022-08-17T15:51:58.087Z,29.29
2022-08-17T15:54:34.512Z,29.32
2022-08-17T15:57:02.933Z,29.44
2022-08-17T15:59:31.094Z,29.57
2022-08-17T16:03:15.177Z,29.76
2022-08-17T16:05:00.035Z,30.14
2022-08-17T16:07:28.782Z,29.85
2022-08-17T16:09:55.431Z,29.52
2022-08-17T16:12:22.353Z,30.13
2022-08-17T16:14:52.600Z,30.32
2022-08-17T16:25:18.097Z,29.62
2022-08-17T16:27:45.967Z,29.44
2022-08-17T16:30:17.539Z,29.11
2022-08-17T16:32:45.431Z,29.67
2022-08-17T16:35:16.223Z,29.41
2022-08-17T16:37:45.382Z,28.92
2022-08-17T16:40:14.376Z,29.09
2022-08-17T16:42:41.196Z,28.81
2022-08-17T16:45:17.032Z,28.52
2022-08-17T16:47:44.016Z,28.93
2022-08-17T16:50:13.766Z,28.91
2022-08-17T16:52:40.509Z,28.71
2022-08-17T16:55:13.258Z,28.95
2022-08-17T16:57:47.356Z,28.72
2022-08-17T17:00:21.100Z,28.63
2022-08-17T17:02:53.823Z,28.58
2022-08-17T17:05:34.302Z,28.68
2022-08-17T17:08:35.002Z,28.48
2022-08-17T17:14:00.062Z,28.20
2022-08-17T17:16:37.304Z,28.09
2022-08-17T17:19:17.970Z,28.02
2022-08-17T17:22:16.586Z,27.80
2022-08-17T17:25:20.828Z,27.95
2022-08-17T17:28:29.139Z,27.81
2022-08-17T17:38:19.803Z,27.49
2022-08-17T17:41:10.757Z,27.21
2022-08-17T17:43:39.948Z,27.31
2022-08-17T17:46:52.598Z,27.31
2022-08-17T17:51:02.791Z,27.17
2022-08-17T20:32:08.143Z,23.95
2022-08-17T20:34:39.740Z,23.61
2022-08-17T20:37:27.056Z,23.79
2022-08-17T20:39:56.583Z,23.97
2022-08-17T20:42:27.189Z,24.09
2022-08-17T20:45:02.740Z,23.66
2022-08-17T20:48:00.757Z,23.81
2022-08-17T20:50:37.897Z,23.82
2022-08-17T20:53:28.156Z,23.79
2022-08-17T20:55:56.843Z,23.75
2022-08-17T20:58:45.394Z,23.72
2022-08-17T21:01:26.531Z,23.88
2022-08-17T21:03:54.569Z,23.60
2022-08-17T21:06:55.348Z,23.56
2022-08-17T21:09:46.845Z,23.39
2022-08-17T21:12:57.202Z,23.89
2022-08-17T21:15:44.410Z,23.72
2022-08-17T21:19:12.399Z,23.63
2022-08-17T21:22:06.471Z,23.74
2022-08-17T21:25:02.263Z,23.84
2022-08-17T21:27:47.077Z,23.67
2022-08-17T21:34:07.899Z,23.48
2022-08-17T21:36:48.246Z,23.59
2022-08-17T21:57:33.559Z,23.35
2022-08-17T22:00:50.222Z,23.29
2022-08-17T22:03:38.414Z,23.37
2022-08-17T22:06:55.806Z,23.67
2022-08-17T22:09:49.587Z,23.23
2022-08-17T22:12:28.863Z,23.06
2022-08-17T22:15:07.193Z,23.40
2022-08-17T22:17:40.483Z,23.20
2022-08-17T22:20:28.877Z,23.27
2022-08-17T22:23:28.727Z,23.55
2022-08-17T22:26:25.438Z,23.21
2022-08-17T22:28:58.385Z,22.96
2022-08-17T22:32:21.601Z,23.22
2022-08-17T22:35:26.678Z,23.07
2022-08-17T22:38:24.065Z,23.15
2022-08-17T22:41:26.258Z,23.06
2022-08-17T22:44:39.622Z,23.30
2022-08-17T22:47:51.608Z,22.90
2022-08-17T22:53:41.788Z,22.83
2022-08-17T22:56:36.321Z,22.94
2022-08-17T22:59:22.854Z,23.04
2022-08-17T23:02:27.541Z,23.25
2022-08-17T23:05:30.792Z,23.00
2022-08-17T23:11:20.446Z,23.18
2022-08-17T23:17:37.448Z,22.98
2022-08-17T23:20:49.624Z,23.29
2022-08-17T23:27:15.205Z,22.92
2022-08-17T23:30:08.653Z,23.23
2022-08-17T23:33:03.089Z,22.83
2022-08-17T23:36:00.142Z,22.94
2022-08-17T23:39:06.631Z,22.98
2022-08-17T23:42:31.097Z,23.15
2022-08-17T23:45:45.169Z,22.78
2022-08-17T23:48:44.443Z,22.69
2022-08-17T23:56:10.079Z,22.67
2022-08-17T23:58:46.382Z,22.58
